sensor_id;sensor_type;location;lat;lon;timestamp;pressure;altitude;pressure_sealevel;temperature;humidity
20983;BME280;10650;51.528;6.748;2023-02-22T00:00:45;101341.09;;;8.37;82.87
20983;BME280;10650;51.528;6.748;2023-02-22T00:03:17;101336.63;;;8.35;82.61
20983;BME280;10650;51.528;6.748;2023-02-22T00:05:53;101347.25;;;8.31;82.71
20983;BME280;10650;51.528;6.748;2023-02-22T00:08:24;101353.44;;;8.27;82.76
20983;BME280;10650;51.528;6.748;2023-02-22T00:10:55;101353.41;;;8.26;82.91
20983;BME280;10650;51.528;6.748;2023-02-22T00:13:23;101351.63;;;8.25;83.27
20983;BME280;10650;51.528;6.748;2023-02-22T00:15:54;101347.16;;;8.22;82.85
20983;BME280;10650;51.528;6.748;2023-02-22T00:18:23;101342.72;;;8.21;83.14
20983;BME280;10650;51.528;6.748;2023-02-22T00:20:53;101348.03;;;8.21;83.07
20983;BME280;10650;51.528;6.748;2023-02-22T00:23:22;101347.09;;;8.18;83.10
20983;BME280;10650;51.528;6.748;2023-02-22T00:25:50;101345.31;;;8.17;83.13
20983;BME280;10650;51.528;6.748;2023-02-22T00:28:18;101338.19;;;8.11;82.78
20983;BME280;10650;51.528;6.748;2023-02-22T00:30:46;101339.91;;;8.07;82.98
20983;BME280;10650;51.528;6.748;2023-02-22T00:33:15;101331.88;;;8.03;83.54
20983;BME280;10650;51.528;6.748;2023-02-22T00:35:44;101336.25;;;7.97;83.30
20983;BME280;10650;51.528;6.748;2023-02-22T00:38:13;101341.50;;;7.91;83.23
20983;BME280;10650;51.528;6.748;2023-02-22T00:40:42;101334.34;;;7.86;83.30
20983;BME280;10650;51.528;6.748;2023-02-22T00:43:10;101331.63;;;7.81;83.57
20983;BME280;10650;51.528;6.748;2023-02-22T00:45:38;101332.47;;;7.75;83.10
20983;BME280;10650;51.528;6.748;2023-02-22T00:48:07;101331.50;;;7.70;83.08
20983;BME280;10650;51.528;6.748;2023-02-22T00:50:35;101320.81;;;7.67;82.96
20983;BME280;10650;51.528;6.748;2023-02-22T00:53:03;101317.19;;;7.60;82.93
20983;BME280;10650;51.528;6.748;2023-02-22T00:55:34;101322.44;;;7.56;82.85
20983;BME280;10650;51.528;6.748;2023-02-22T00:58:04;101318.91;;;7.54;83.39
20983;BME280;10650;51.528;6.748;2023-02-22T01:00:34;101318.81;;;7.51;83.58
20983;BME280;10650;51.528;6.748;2023-02-22T01:03:03;101310.84;;;7.49;83.48
20983;BME280;10650;51.528;6.748;2023-02-22T01:05:32;101324.13;;;7.48;83.20
20983;BME280;10650;51.528;6.748;2023-02-22T01:08:01;101317.00;;;7.45;83.41
20983;BME280;10650;51.528;6.748;2023-02-22T01:10:30;101308.94;;;7.40;83.37
20983;BME280;10650;51.528;6.748;2023-02-22T01:12:58;101313.34;;;7.37;83.33
20983;BME280;10650;51.528;6.748;2023-02-22T01:15:28;101310.59;;;7.31;82.88
20983;BME280;10650;51.528;6.748;2023-02-22T01:17:57;101316.63;;;7.19;83.42
20983;BME280;10650;51.528;6.748;2023-02-22T01:20:27;101308.66;;;7.19;83.72
20983;BME280;10650;51.528;6.748;2023-02-22T01:22:57;101312.22;;;7.19;83.84
20983;BME280;10650;51.528;6.748;2023-02-22T01:25:27;101307.75;;;7.17;83.84
20983;BME280;10650;51.528;6.748;2023-02-22T01:27:56;101314.84;;;7.18;83.82
20983;BME280;10650;51.528;6.748;2023-02-22T01:30:26;101299.78;;;7.15;83.37
20983;BME280;10650;51.528;6.748;2023-02-22T01:32:56;101303.28;;;7.14;83.26
20983;BME280;10650;51.528;6.748;2023-02-22T01:35:26;101305.06;;;7.12;83.38
20983;BME280;10650;51.528;6.748;2023-02-22T01:37:54;101297.91;;;7.09;83.75
20983;BME280;10650;51.528;6.748;2023-02-22T01:40:25;101292.56;;;7.06;83.22
20983;BME280;10650;51.528;6.748;2023-02-22T01:42:55;101292.50;;;7.03;83.23
20983;BME280;10650;51.528;6.748;2023-02-22T01:45:49;101292.44;;;6.99;83.00
20983;BME280;10650;51.528;6.748;2023-02-22T01:48:25;101291.53;;;6.97;82.95
20983;BME280;10650;51.528;6.748;2023-02-22T01:50:56;101279.06;;;6.92;82.66
20983;BME280;10650;51.528;6.748;2023-02-22T01:53:33;101277.22;;;6.87;82.66
20983;BME280;10650;51.528;6.748;2023-02-22T01:56:05;101272.72;;;6.81;82.96
20983;BME280;10650;51.528;6.748;2023-02-22T01:58:34;101266.44;;;6.78;82.81
20983;BME280;10650;51.528;6.748;2023-02-22T02:01:03;101264.69;;;6.77;83.08
20983;BME280;10650;51.528;6.748;2023-02-22T02:03:34;101270.84;;;6.75;83.05
20983;BME280;10650;51.528;6.748;2023-02-22T02:06:06;101271.72;;;6.74;83.04
20983;BME280;10650;51.528;6.748;2023-02-22T02:08:44;101267.22;;;6.70;82.82
20983;BME280;10650;51.528;6.748;2023-02-22T02:11:18;101264.50;;;6.66;82.65
20983;BME280;10650;51.528;6.748;2023-02-22T02:13:48;101259.16;;;6.63;82.93
20983;BME280;10650;51.528;6.748;2023-02-22T02:16:17;101250.25;;;6.59;82.61
20983;BME280;10650;51.528;6.748;2023-02-22T02:18:48;101256.41;;;6.56;82.47
20983;BME280;10650;51.528;6.748;2023-02-22T02:21:46;101251.06;;;6.55;82.72
20983;BME280;10650;51.528;6.748;2023-02-22T02:24:36;101243.03;;;6.52;82.32
20983;BME280;10650;51.528;6.748;2023-02-22T02:27:16;101251.84;;;6.48;82.18
20983;BME280;10650;51.528;6.748;2023-02-22T02:33:11;101238.47;;;6.41;82.71
20983;BME280;10650;51.528;6.748;2023-02-22T02:35:48;101237.53;;;6.38;82.43
20983;BME280;10650;51.528;6.748;2023-02-22T02:38:24;101233.91;;;6.33;82.43
20983;BME280;10650;51.528;6.748;2023-02-22T02:41:02;101239.19;;;6.31;82.39
20983;BME280;10650;51.528;6.748;2023-02-22T02:43:36;101232.06;;;6.30;82.24
20983;BME280;10650;51.528;6.748;2023-02-22T02:46:09;101237.38;;;6.30;82.32
20983;BME280;10650;51.528;6.748;2023-02-22T02:48:44;101225.00;;;6.29;82.92
20983;BME280;10650;51.528;6.748;2023-02-22T02:51:15;101228.53;;;6.28;82.57
20983;BME280;10650;51.528;6.748;2023-02-22T02:53:46;101226.72;;;6.26;82.96
20983;BME280;10650;51.528;6.748;2023-02-22T02:56:16;101224.06;;;6.26;82.99
20983;BME280;10650;51.528;6.748;2023-02-22T02:58:46;101218.72;;;6.24;82.56
20983;BME280;10650;51.528;6.748;2023-02-22T03:01:23;101221.38;;;6.24;82.78
20983;BME280;10650;51.528;6.748;2023-02-22T03:04:16;101219.59;;;6.23;82.70
20983;BME280;10650;51.528;6.748;2023-02-22T03:07:17;101215.16;;;6.22;83.48
20983;BME280;10650;51.528;6.748;2023-02-22T03:09:58;101218.72;;;6.24;84.15
20983;BME280;10650;51.528;6.748;2023-02-22T03:12:37;101210.81;;;6.27;84.36
20983;BME280;10650;51.528;6.748;2023-02-22T03:15:17;101202.88;;;6.29;84.67
20983;BME280;10650;51.528;6.748;2023-02-22T03:17:53;101205.53;;;6.30;85.05
20983;BME280;10650;51.528;6.748;2023-02-22T03:20:28;101208.28;;;6.35;85.48
20983;BME280;10650;51.528;6.748;2023-02-22T03:23:02;101200.38;;;6.38;85.63
20983;BME280;10650;51.528;6.748;2023-02-22T03:25:33;101200.38;;;6.38;85.46
20983;BME280;10650;51.528;6.748;2023-02-22T03:28:06;101195.97;;;6.40;85.80
20983;BME280;10650;51.528;6.748;2023-02-22T03:30:40;101198.66;;;6.43;86.48
20983;BME280;10650;51.528;6.748;2023-02-22T03:33:09;101193.44;;;6.48;86.81
20983;BME280;10650;51.528;6.748;2023-02-22T03:35:44;101189.91;;;6.49;86.92
20983;BME280;10650;51.528;6.748;2023-02-22T03:38:15;101190.81;;;6.49;86.92
20983;BME280;10650;51.528;6.748;2023-02-22T03:40:49;101197.03;;;6.51;87.23
20983;BME280;10650;51.528;6.748;2023-02-22T03:43:23;101190.84;;;6.51;87.02
20983;BME280;10650;51.528;6.748;2023-02-22T03:45:52;101183.75;;;6.51;87.40
20983;BME280;10650;51.528;6.748;2023-02-22T03:48:26;101188.22;;;6.52;87.26
20983;BME280;10650;51.528;6.748;2023-02-22T03:51:01;101183.78;;;6.53;87.33
20983;BME280;10650;51.528;6.748;2023-02-22T03:53:31;101194.41;;;6.54;87.41
20983;BME280;10650;51.528;6.748;2023-02-22T03:56:04;101193.59;;;6.58;87.55
20983;BME280;10650;51.528;6.748;2023-02-22T03:58:36;101196.28;;;6.60;87.72
20983;BME280;10650;51.528;6.748;2023-02-22T04:01:05;101189.25;;;6.62;87.46
20983;BME280;10650;51.528;6.748;2023-02-22T04:03:33;101194.59;;;6.65;87.77
20983;BME280;10650;51.528;6.748;2023-02-22T04:06:02;101192.84;;;6.67;87.67
20983;BME280;10650;51.528;6.748;2023-02-22T04:08:30;101199.94;;;6.68;87.85
20983;BME280;10650;51.528;6.748;2023-02-22T04:10:58;101204.38;;;6.69;87.52
20983;BME280;10650;51.528;6.748;2023-02-22T04:13:26;101210.56;;;6.70;87.50
20983;BME280;10650;51.528;6.748;2023-02-22T04:15:54;101204.41;;;6.71;87.62
20983;BME280;10650;51.528;6.748;2023-02-22T04:18:22;101202.66;;;6.73;87.81
20983;BME280;10650;51.528;6.748;2023-02-22T04:20:50;101205.31;;;6.74;87.64
20983;BME280;10650;51.528;6.748;2023-02-22T04:23:19;101205.38;;;6.78;87.90
20983;BME280;10650;51.528;6.748;2023-02-22T04:25:47;101197.41;;;6.78;88.16
20983;BME280;10650;51.528;6.748;2023-02-22T04:28:14;101193.00;;;6.78;87.86
20983;BME280;10650;51.528;6.748;2023-02-22T04:30:42;101193.03;;;6.81;88.29
20983;BME280;10650;51.528;6.748;2023-02-22T04:33:11;101178.91;;;6.84;88.64
20983;BME280;10650;51.528;6.748;2023-02-22T04:35:39;101186.06;;;6.88;88.31
20983;BME280;10650;51.528;6.748;2023-02-22T04:38:07;101171.88;;;6.89;88.23
20983;BME280;10650;51.528;6.748;2023-02-22T04:40:37;101171.91;;;6.90;88.52
20983;BME280;10650;51.528;6.748;2023-02-22T04:43:05;101172.84;;;6.94;88.58
20983;BME280;10650;51.528;6.748;2023-02-22T04:45:33;101170.19;;;6.94;88.30
20983;BME280;10650;51.528;6.748;2023-02-22T04:48:01;101162.22;;;6.94;88.69
20983;BME280;10650;51.528;6.748;2023-02-22T04:50:29;101163.09;;;6.93;88.52
20983;BME280;10650;51.528;6.748;2023-02-22T04:52:57;101156.88;;;6.92;88.89
20983;BME280;10650;51.528;6.748;2023-02-22T04:55:24;101158.69;;;6.95;89.13
20983;BME280;10650;51.528;6.748;2023-02-22T04:57:54;101164.88;;;6.96;89.28
20983;BME280;10650;51.528;6.748;2023-02-22T05:00:23;101148.97;;;6.97;89.52
20983;BME280;10650;51.528;6.748;2023-02-22T05:02:50;101142.78;;;6.98;89.77
20983;BME280;10650;51.528;6.748;2023-02-22T05:05:20;101142.75;;;6.95;89.96
20983;BME280;10650;51.528;6.748;2023-02-22T05:07:48;101140.09;;;6.93;90.20
20983;BME280;10650;51.528;6.748;2023-02-22T05:10:16;101145.41;;;6.95;90.39
20983;BME280;10650;51.528;6.748;2023-02-22T05:12:44;101136.53;;;6.93;90.67
20983;BME280;10650;51.528;6.748;2023-02-22T05:15:16;101135.69;;;6.97;90.67
20983;BME280;10650;51.528;6.748;2023-02-22T05:17:45;101140.13;;;6.97;90.84
20983;BME280;10650;51.528;6.748;2023-02-22T05:20:17;101137.47;;;6.98;91.12
20983;BME280;10650;51.528;6.748;2023-02-22T05:22:48;101135.75;;;7.02;91.36
20983;BME280;10650;51.528;6.748;2023-02-22T05:25:17;101134.88;;;7.04;91.34
20983;BME280;10650;51.528;6.748;2023-02-22T05:27:50;101128.72;;;7.07;91.19
20983;BME280;10650;51.528;6.748;2023-02-22T05:30:23;101133.19;;;7.08;91.79
20983;BME280;10650;51.528;6.748;2023-02-22T05:32:51;101124.31;;;7.09;91.59
20983;BME280;10650;51.528;6.748;2023-02-22T05:35:21;101126.06;;;7.05;91.59
20983;BME280;10650;51.528;6.748;2023-02-22T05:37:49;101124.25;;;7.03;91.85
20983;BME280;10650;51.528;6.748;2023-02-22T05:40:18;101125.13;;;7.05;92.15
20983;BME280;10650;51.528;6.748;2023-02-22T05:42:47;101118.97;;;7.07;92.25
20983;BME280;10650;51.528;6.748;2023-02-22T05:45:16;101123.41;;;7.05;92.02
20983;BME280;10650;51.528;6.748;2023-02-22T05:47:46;101114.56;;;7.06;92.40
20983;BME280;10650;51.528;6.748;2023-02-22T05:50:14;101122.53;;;7.06;92.06
20983;BME280;10650;51.528;6.748;2023-02-22T05:52:42;101120.75;;;7.07;92.42
20983;BME280;10650;51.528;6.748;2023-02-22T05:55:13;101117.16;;;7.05;92.35
20983;BME280;10650;51.528;6.748;2023-02-22T05:57:41;101118.97;;;7.07;92.09
20983;BME280;10650;51.528;6.748;2023-02-22T06:00:13;101111.94;;;7.09;92.29
20983;BME280;10650;51.528;6.748;2023-02-22T06:02:42;101112.75;;;7.02;92.14
20983;BME280;10650;51.528;6.748;2023-02-22T06:05:11;101115.38;;;6.99;92.18
20983;BME280;10650;51.528;6.748;2023-02-22T06:07:42;101116.22;;;6.97;92.31
20983;BME280;10650;51.528;6.748;2023-02-22T06:10:10;101121.50;;;6.93;92.61
20983;BME280;10650;51.528;6.748;2023-02-22T06:12:39;101121.56;;;7.00;92.84
20983;BME280;10650;51.528;6.748;2023-02-22T06:15:07;101118.16;;;7.12;92.53
20983;BME280;10650;51.528;6.748;2023-02-22T06:17:35;101109.31;;;7.14;92.26
20983;BME280;10650;51.528;6.748;2023-02-22T06:20:03;101109.34;;;7.16;91.85
20983;BME280;10650;51.528;6.748;2023-02-22T06:22:32;101110.22;;;7.16;91.80
20983;BME280;10650;51.528;6.748;2023-02-22T06:25:01;101113.78;;;7.17;92.00
20983;BME280;10650;51.528;6.748;2023-02-22T06:27:29;101104.03;;;7.17;91.91
20983;BME280;10650;51.528;6.748;2023-02-22T06:29:57;101109.34;;;7.17;91.80
20983;BME280;10650;51.528;6.748;2023-02-22T06:32:25;101104.03;;;7.17;91.95
20983;BME280;10650;51.528;6.748;2023-02-22T06:34:53;101107.56;;;7.18;91.87
20983;BME280;10650;51.528;6.748;2023-02-22T06:37:21;101103.16;;;7.18;91.95
20983;BME280;10650;51.528;6.748;2023-02-22T06:39:50;101103.19;;;7.20;91.99
20983;BME280;10650;51.528;6.748;2023-02-22T06:42:17;101100.53;;;7.21;92.04
20983;BME280;10650;51.528;6.748;2023-02-22T06:44:45;101097.00;;;7.21;91.70
20983;BME280;10650;51.528;6.748;2023-02-22T06:47:14;101098.75;;;7.22;91.53
20983;BME280;10650;51.528;6.748;2023-02-22T06:49:42;101100.50;;;7.18;91.33
20983;BME280;10650;51.528;6.748;2023-02-22T06:52:10;101091.59;;;7.15;91.27
20983;BME280;10650;51.528;6.748;2023-02-22T06:54:38;101096.91;;;7.13;91.34
20983;BME280;10650;51.528;6.748;2023-02-22T06:57:07;101095.16;;;7.12;91.38
20983;BME280;10650;51.528;6.748;2023-02-22T06:59:35;101089.78;;;7.10;91.67
20983;BME280;10650;51.528;6.748;2023-02-22T07:02:03;101093.34;;;7.09;91.48
20983;BME280;10650;51.528;6.748;2023-02-22T07:04:31;101098.66;;;7.09;91.67
20983;BME280;10650;51.528;6.748;2023-02-22T07:07:02;101101.31;;;7.09;91.53
20983;BME280;10650;51.528;6.748;2023-02-22T07:09:30;101104.81;;;7.07;91.73
20983;BME280;10650;51.528;6.748;2023-02-22T07:11:58;101097.72;;;7.06;91.84
20983;BME280;10650;51.528;6.748;2023-02-22T07:14:28;101100.38;;;7.06;91.85
20983;BME280;10650;51.528;6.748;2023-02-22T07:16:56;101103.97;;;7.09;91.82
20983;BME280;10650;51.528;6.748;2023-02-22T07:19:24;101106.66;;;7.14;91.74
20983;BME280;10650;51.528;6.748;2023-02-22T07:21:52;101096.91;;;7.15;91.73
20983;BME280;10650;51.528;6.748;2023-02-22T07:24:25;101095.19;;;7.17;91.57
20983;BME280;10650;51.528;6.748;2023-02-22T07:26:56;101104.09;;;7.23;91.90
20983;BME280;10650;51.528;6.748;2023-02-22T07:29:24;101092.59;;;7.26;91.69
20983;BME280;10650;51.528;6.748;2023-02-22T07:31:53;101090.88;;;7.30;92.03
20983;BME280;10650;51.528;6.748;2023-02-22T07:34:20;101089.13;;;7.33;91.71
20983;BME280;10650;51.528;6.748;2023-02-22T07:36:48;101087.44;;;7.38;91.55
20983;BME280;10650;51.528;6.748;2023-02-22T07:39:16;101083.00;;;7.40;91.33
20983;BME280;10650;51.528;6.748;2023-02-22T07:41:43;101090.13;;;7.44;91.22
20983;BME280;10650;51.528;6.748;2023-02-22T07:44:11;101082.19;;;7.51;91.10
20983;BME280;10650;51.528;6.748;2023-02-22T07:46:39;101077.81;;;7.53;90.86
20983;BME280;10650;51.528;6.748;2023-02-22T07:49:08;101082.31;;;7.60;90.93
20983;BME280;10650;51.528;6.748;2023-02-22T07:51:36;101081.44;;;7.62;90.62
20983;BME280;10650;51.528;6.748;2023-02-22T07:54:04;101075.28;;;7.67;90.61
20983;BME280;10650;51.528;6.748;2023-02-22T07:56:31;101079.75;;;7.72;90.55
20983;BME280;10650;51.528;6.748;2023-02-22T07:58:59;101065.63;;;7.78;90.01
20983;BME280;10650;51.528;6.748;2023-02-22T08:01:27;101078.09;;;7.85;90.08
20983;BME280;10650;51.528;6.748;2023-02-22T08:03:55;101075.47;;;7.91;90.02
20983;BME280;10650;51.528;6.748;2023-02-22T08:06:24;101075.50;;;7.96;89.92
20983;BME280;10650;51.528;6.748;2023-02-22T08:08:53;101071.97;;;7.99;89.69
20983;BME280;10650;51.528;6.748;2023-02-22T08:11:21;101078.22;;;8.05;89.56
20983;BME280;10650;51.528;6.748;2023-02-22T08:13:49;101065.84;;;8.12;89.77
20983;BME280;10650;51.528;6.748;2023-02-22T08:16:17;101072.09;;;8.17;89.33
20983;BME280;10650;51.528;6.748;2023-02-22T08:18:44;101069.47;;;8.23;89.00
20983;BME280;10650;51.528;6.748;2023-02-22T08:21:12;101065.06;;;8.27;88.47
20983;BME280;10650;51.528;6.748;2023-02-22T08:23:42;101060.63;;;8.32;88.66
20983;BME280;10650;51.528;6.748;2023-02-22T08:26:10;101063.31;;;8.37;88.39
20983;BME280;10650;51.528;6.748;2023-02-22T08:28:40;101058.03;;;8.40;88.17
20983;BME280;10650;51.528;6.748;2023-02-22T08:31:08;101062.44;;;8.41;87.62
20983;BME280;10650;51.528;6.748;2023-02-22T08:33:36;101054.47;;;8.42;87.50
20983;BME280;10650;51.528;6.748;2023-02-22T08:36:04;101054.50;;;8.44;87.66
20983;BME280;10650;51.528;6.748;2023-02-22T08:38:32;101062.44;;;8.42;87.36
20983;BME280;10650;51.528;6.748;2023-02-22T08:41:01;101058.91;;;8.43;87.27
20983;BME280;10650;51.528;6.748;2023-02-22T08:43:29;101056.25;;;8.43;87.40
20983;BME280;10650;51.528;6.748;2023-02-22T08:45:57;101054.53;;;8.47;87.35
20983;BME280;10650;51.528;6.748;2023-02-22T08:48:25;101054.56;;;8.52;87.31
20983;BME280;10650;51.528;6.748;2023-02-22T08:50:53;101059.03;;;8.56;87.08
20983;BME280;10650;51.528;6.748;2023-02-22T08:53:21;101057.25;;;8.61;87.01
20983;BME280;10650;51.528;6.748;2023-02-22T08:55:49;101060.81;;;8.63;86.20
20983;BME280;10650;51.528;6.748;2023-02-22T08:58:18;101048.41;;;8.68;86.25
20983;BME280;10650;51.528;6.748;2023-02-22T09:00:46;101056.44;;;8.76;86.21
20983;BME280;10650;51.528;6.748;2023-02-22T09:03:14;101055.56;;;8.85;85.88
20983;BME280;10650;51.528;6.748;2023-02-22T09:05:43;101054.72;;;8.95;85.66
20983;BME280;10650;51.528;6.748;2023-02-22T09:08:11;101045.84;;;9.04;85.56
20983;BME280;10650;51.528;6.748;2023-02-22T09:10:39;101045.88;;;9.11;85.20
20983;BME280;10650;51.528;6.748;2023-02-22T09:13:07;101040.56;;;9.17;84.94
20983;BME280;10650;51.528;6.748;2023-02-22T09:15:36;101042.34;;;9.23;84.85
20983;BME280;10650;51.528;6.748;2023-02-22T09:18:07;101041.47;;;9.29;84.99
20983;BME280;10650;51.528;6.748;2023-02-22T09:20:35;101038.78;;;9.33;84.54
20983;BME280;10650;51.528;6.748;2023-02-22T09:23:04;101039.69;;;9.42;84.25
20983;BME280;10650;51.528;6.748;2023-02-22T09:25:32;101038.81;;;9.47;83.65
20983;BME280;10650;51.528;6.748;2023-02-22T09:28:01;101035.25;;;9.50;83.92
20983;BME280;10650;51.528;6.748;2023-02-22T09:30:31;101034.34;;;9.54;83.38
20983;BME280;10650;51.528;6.748;2023-02-22T09:33:02;101038.81;;;9.64;83.67
20983;BME280;10650;51.528;6.748;2023-02-22T09:35:31;101037.03;;;9.76;83.66
20983;BME280;10650;51.528;6.748;2023-02-22T09:38:03;101034.34;;;9.86;83.36
20983;BME280;10650;51.528;6.748;2023-02-22T09:40:33;101028.09;;;9.95;83.02
20983;BME280;10650;51.528;6.748;2023-02-22T09:43:14;101030.75;;;10.06;83.12
20983;BME280;10650;51.528;6.748;2023-02-22T09:45:56;101028.94;;;10.13;82.40
20983;BME280;10650;51.528;6.748;2023-02-22T09:48:33;101019.13;;;10.21;82.60
20983;BME280;10650;51.528;6.748;2023-02-22T09:51:04;101020.91;;;10.27;81.42
20983;BME280;10650;51.528;6.748;2023-02-22T09:53:41;101021.78;;;10.38;81.30
20983;BME280;10650;51.528;6.748;2023-02-22T09:56:13;101019.97;;;10.46;81.18
20983;BME280;10650;51.528;6.748;2023-02-22T09:58:45;101016.38;;;10.53;80.75
20983;BME280;10650;51.528;6.748;2023-02-22T10:01:21;101018.09;;;10.65;81.19
20983;BME280;10650;51.528;6.748;2023-02-22T10:03:57;101010.94;;;10.75;80.24
20983;BME280;10650;51.528;6.748;2023-02-22T10:06:28;101002.84;;;10.84;79.96
20983;BME280;10650;51.528;6.748;2023-02-22T10:09:00;101000.13;;;10.94;79.85
20983;BME280;10650;51.528;6.748;2023-02-22T10:11:47;101009.00;;;11.03;80.10
20983;BME280;10650;51.528;6.748;2023-02-22T10:14:31;100999.16;;;11.05;78.92
20983;BME280;10650;51.528;6.748;2023-02-22T10:17:09;100995.50;;;11.16;78.97
20983;BME280;10650;51.528;6.748;2023-02-22T10:19:54;101002.59;;;11.21;78.56
20983;BME280;10650;51.528;6.748;2023-02-22T10:22:44;100990.94;;;11.30;78.67
20983;BME280;10650;51.528;6.748;2023-02-22T10:25:19;100991.72;;;11.43;78.60
20983;BME280;10650;51.528;6.748;2023-02-22T10:27:54;100998.81;;;11.53;77.92
20983;BME280;10650;51.528;6.748;2023-02-22T10:30:26;100987.13;;;11.62;77.95
20983;BME280;10650;51.528;6.748;2023-02-22T10:33:05;100982.59;;;11.69;77.24
20983;BME280;10650;51.528;6.748;2023-02-22T10:35:37;100986.09;;;11.75;77.21
20983;BME280;10650;51.528;6.748;2023-02-22T10:38:13;100980.66;;;11.83;77.03
20983;BME280;10650;51.528;6.748;2023-02-22T10:40:42;100977.03;;;11.87;76.48
20983;BME280;10650;51.528;6.748;2023-02-22T10:43:13;100968.09;;;11.90;76.47
20983;BME280;10650;51.528;6.748;2023-02-22T10:45:41;100975.22;;;11.96;75.73
20983;BME280;10650;51.528;6.748;2023-02-22T10:48:11;100969.81;;;11.99;75.37
20983;BME280;10650;51.528;6.748;2023-02-22T10:50:43;100970.56;;;12.11;75.76
20983;BME280;10650;51.528;6.748;2023-02-22T10:53:12;100958.84;;;12.22;75.55
20983;BME280;10650;51.528;6.748;2023-02-22T10:56:08;100959.59;;;12.33;75.02
20983;BME280;10650;51.528;6.748;2023-02-22T10:58:41;100953.19;;;12.45;74.38
20983;BME280;10650;51.528;6.748;2023-02-22T11:01:20;100949.53;;;12.52;74.02
20983;BME280;10650;51.528;6.748;2023-02-22T11:04:00;100944.03;;;12.61;74.05
20983;BME280;10650;51.528;6.748;2023-02-22T11:06:31;100951.09;;;12.69;73.19
20983;BME280;10650;51.528;6.748;2023-02-22T11:09:11;100947.38;;;12.77;72.72
20983;BME280;10650;51.528;6.748;2023-02-22T11:11:41;100956.19;;;12.86;72.16
20983;BME280;10650;51.528;6.748;2023-02-22T11:14:10;100944.50;;;12.91;72.55
20983;BME280;10650;51.528;6.748;2023-02-22T11:16:41;100939.91;;;12.98;71.77
20983;BME280;10650;51.528;6.748;2023-02-22T11:19:16;100939.75;;;13.09;72.21
20983;BME280;10650;51.528;6.748;2023-02-22T11:21:48;100941.38;;;13.18;71.64
20983;BME280;10650;51.528;6.748;2023-02-22T11:24:20;100939.50;;;13.24;71.67
20983;BME280;10650;51.528;6.748;2023-02-22T11:26:52;100933.16;;;13.30;71.21
20983;BME280;10650;51.528;6.748;2023-02-22T11:29:25;100926.78;;;13.39;71.65
20983;BME280;10650;51.528;6.748;2023-02-22T11:31:54;100921.28;;;13.45;71.05
20983;BME280;10650;51.528;6.748;2023-02-22T11:34:31;100924.69;;;13.55;70.71
20983;BME280;10650;51.528;6.748;2023-02-22T11:37:26;100921.00;;;13.60;70.42
20983;BME280;10650;51.528;6.748;2023-02-22T11:40:11;100919.13;;;13.64;69.65
20983;BME280;10650;51.528;6.748;2023-02-22T11:42:43;100918.97;;;13.73;69.42
20983;BME280;10650;51.528;6.748;2023-02-22T11:45:13;100918.81;;;13.81;68.86
20983;BME280;10650;51.528;6.748;2023-02-22T11:47:51;100913.34;;;13.87;68.83
20983;BME280;10650;51.528;6.748;2023-02-22T11:50:25;100910.53;;;13.93;68.25
20983;BME280;10650;51.528;6.748;2023-02-22T11:53:11;100909.47;;;14.00;68.31
20983;BME280;10650;51.528;6.748;2023-02-22T11:55:52;100903.00;;;14.11;67.64
20983;BME280;10650;51.528;6.748;2023-02-22T11:58:31;100898.41;;;14.17;65.89
20983;BME280;10650;51.528;6.748;2023-02-22T12:01:13;100896.47;;;14.24;64.24
20983;BME280;10650;51.528;6.748;2023-02-22T12:04:02;100890.84;;;14.35;62.90
20983;BME280;10650;51.528;6.748;2023-02-22T12:06:45;100890.56;;;14.47;62.70
20983;BME280;10650;51.528;6.748;2023-02-22T12:09:21;100886.78;;;14.56;61.23
20983;BME280;10650;51.528;6.748;2023-02-22T12:11:58;100887.50;;;14.66;60.57
20983;BME280;10650;51.528;6.748;2023-02-22T12:14:34;100884.69;;;14.70;59.01
20983;BME280;10650;51.528;6.748;2023-02-22T12:17:17;100885.44;;;14.76;58.63
20983;BME280;10650;51.528;6.748;2023-02-22T12:19:51;100889.75;;;14.84;59.20
20983;BME280;10650;51.528;6.748;2023-02-22T12:22:24;100887.84;;;14.88;58.70
20983;BME280;10650;51.528;6.748;2023-02-22T12:24:59;100885.09;;;14.91;59.42
20983;BME280;10650;51.528;6.748;2023-02-22T12:27:38;100878.72;;;14.95;59.01
20983;BME280;10650;51.528;6.748;2023-02-22T12:30:14;100870.47;;;15.01;59.21
20983;BME280;10650;51.528;6.748;2023-02-22T12:32:47;100884.72;;;15.07;58.90
20983;BME280;10650;51.528;6.748;2023-02-22T12:35:18;100887.31;;;15.10;57.96
20983;BME280;10650;51.528;6.748;2023-02-22T12:37:52;100880.97;;;15.12;57.74
20983;BME280;10650;51.528;6.748;2023-02-22T12:40:31;100887.28;;;15.11;57.31
20983;BME280;10650;51.528;6.748;2023-02-22T12:43:03;100877.41;;;15.12;57.16
20983;BME280;10650;51.528;6.748;2023-02-22T12:45:37;100880.09;;;15.12;56.68
20983;BME280;10650;51.528;6.748;2023-02-22T12:48:21;100880.03;;;15.15;56.38
20983;BME280;10650;51.528;6.748;2023-02-22T12:50:54;100876.25;;;15.22;56.84
20983;BME280;10650;51.528;6.748;2023-02-22T12:53:27;100871.66;;;15.26;56.60
20983;BME280;10650;51.528;6.748;2023-02-22T12:56:03;100879.69;;;15.27;56.67
20983;BME280;10650;51.528;6.748;2023-02-22T12:58:45;100873.44;;;15.27;56.52
20983;BME280;10650;51.528;6.748;2023-02-22T13:01:18;100881.53;;;15.25;56.01
20983;BME280;10650;51.528;6.748;2023-02-22T13:03:47;100877.06;;;15.24;55.71
20983;BME280;10650;51.528;6.748;2023-02-22T13:06:26;100874.34;;;15.26;55.85
20983;BME280;10650;51.528;6.748;2023-02-22T13:09:08;100878.03;;;15.21;54.64
20983;BME280;10650;51.528;6.748;2023-02-22T13:11:50;100866.31;;;15.24;54.13
20983;BME280;10650;51.528;6.748;2023-02-22T13:14:38;100875.16;;;15.29;54.19
20983;BME280;10650;51.528;6.748;2023-02-22T13:17:17;100876.91;;;15.32;54.22
20983;BME280;10650;51.528;6.748;2023-02-22T13:19:54;100866.03;;;15.35;54.47
20983;BME280;10650;51.528;6.748;2023-02-22T13:22:30;100865.09;;;15.37;54.00
20983;BME280;10650;51.528;6.748;2023-02-22T13:25:03;100863.19;;;15.41;54.73